CDT,Max TemperatureF,Mean TemperatureF,Min TemperatureF,Max Dew PointF,MeanDew PointF,Min DewpointF,Max Humidity, Mean Humidity, Min Humidity, Max Sea Level PressureIn, Mean Sea Level PressureIn, Min Sea Level PressureIn, Max VisibilityMiles, Mean VisibilityMiles, Min VisibilityMiles, Max Wind SpeedMPH, Mean Wind SpeedMPH, Max Gust SpeedMPH,PrecipitationIn, CloudCover, Events, WindDirDegrees
2013-8-1,99,87,75,76,73,71,94,68,42,30.03,29.97,29.89,10,10,3,29,3,37,0.08,2,Rain-Thunderstorm,171
2013-8-2,98,86,74,75,73,70,100,71,42,29.99,29.94,29.90,10,9,6,9,3,13,0.00,0,,184
2013-8-3,96,85,73,76,73,67,100,71,41,30.05,30.00,29.96,10,10,5,12,4,15,0.00,1,,182
2013-8-4,97,86,74,77,74,69,100,71,42,30.11,30.03,29.94,10,10,8,14,3,20,0.00,1,,170
2013-8-5,96,86,75,75,73,66,94,66,38,30.05,29.98,29.89,10,10,10,15,6,26,0.00,0,,187
2013-8-6,98,86,74,76,73,68,100,70,39,29.99,29.92,29.83,10,10,9,14,7,21,0.00,1,,201
2013-8-7,98,87,76,76,73,65,100,67,33,29.96,29.90,29.81,10,9,6,14,7,21,0.00,2,,201
2013-8-8,99,86,73,75,72,64,100,67,33,29.95,29.89,29.81,10,8,4,14,6,18,0.00,2,,166
2013-8-9,99,85,70,75,72,68,100,70,39,29.99,29.93,29.86,10,6,0,13,3,17,0.00,2,Fog,163
2013-8-10,99,86,72,78,74,70,100,71,42,30.06,30.00,29.94,10,8,1,36,3,41,0.04,2,Rain-Thunderstorm,122
2013-8-11,97,85,72,79,73,70,100,73,46,30.10,30.05,29.99,10,10,7,17,3,24,0.00,1,,139
2013-8-12,97,85,73,77,74,70,100,71,42,30.09,30.03,29.94,10,10,6,10,3,14,0.00,2,,207
2013-8-13,99,87,75,76,73,67,94,65,35,30.05,29.97,29.87,10,10,10,12,5,20,0.00,2,,221
2013-8-14,93,84,74,76,74,71,100,78,56,30.00,29.96,29.90,10,9,1,5,3,36,0.79,3,Rain-Thunderstorm,264
2013-8-15,91,81,71,75,67,59,100,72,44,30.05,29.98,29.92,10,9,6,9,4,14,T,4,Rain,25
2013-8-16,92,81,69,71,65,60,84,64,44,30.02,29.97,29.92,10,10,9,10,4,14,T,1,Rain-Thunderstorm,31
2013-8-17,90,78,66,64,60,55,81,57,32,30.04,29.99,29.93,10,10,10,13,5,21,0.00,1,,27
2013-8-18,92,79,65,70,65,61,100,68,36,30.04,30.00,29.96,10,10,5,10,3,14,0.00,2,,52
2013-8-19,93,81,69,70,65,59,84,60,36,30.06,30.00,29.93,10,10,10,10,3,12,0.00,3,,98
2013-8-20,94,81,68,73,66,59,97,65,32,30.04,30.00,29.95,10,10,10,15,4,18,0.00,1,,115
2013-8-21,96,83,69,74,69,64,100,70,39,30.10,30.04,29.97,10,10,7,10,2,16,0.00,1,,129
2013-8-22,97,85,72,75,70,64,93,64,35,30.11,30.03,29.94,10,10,8,13,3,17,0.00,2,,126
2013-8-23,97,84,71,75,70,66,100,69,38,30.02,29.96,29.88,10,10,9,12,3,15,0.01,2,Rain-Thunderstorm,102
2013-8-24,97,85,73,76,70,65,94,66,38,30.05,30.00,29.95,10,10,8,18,6,24,0.00,1,,88
2013-8-25,94,83,72,71,70,66,100,72,44,30.12,30.07,30.03,10,10,10,8,8,10,0.00,1,,95
2013-8-26,89,80,71,75,72,70,100,78,55,30.18,30.12,30.09,10,10,7,26,6,31,0.04,5,Rain-Thunderstorm,107
2013-8-27,94,82,69,73,69,63,100,68,36,30.14,30.08,30.01,10,9,1,12,2,14,0.00,2,,107
2013-8-28,99,86,72,71,68,63,93,63,33,30.09,30.02,29.96,10,10,10,10,2,13,0.00,3,,324
2013-8-29,99,87,74,71,67,61,82,56,29,30.06,30.00,29.93,10,10,10,10,4,13,0.00,2,,131
2013-8-30,98,86,73,76,70,63,100,67,33,30.02,29.95,29.87,10,8,2,14,4,20,0.00,0,,154
2013-8-31,98,85,71,74,70,67,100,69,38,29.95,29.89,29.81,10,8,2,14,5,21,0.00,0,,167